NCAR-RAP Real-Time Weather Data

Output produced by METARs form (20 February 2019  17:53 UTC)
found at http://weather.rap.ucar.edu/surface/
 
RJOC 201100Z 24006KT 9999 FEW025 BKN050 07/00 Q1022
RJOC 201000Z 29009KT 9999 FEW025 SCT040 08/01 Q1021
RJOC 200900Z 26009KT 9999 FEW025 SCT035 BKN045 09/02 Q1021
RJOC 200800Z 27014KT 9999 FEW025 SCT030 BKN040 09/01 Q1021
RJOC 200700Z 27015KT 9999 FEW025 BKN030 BKN040 09/02 Q1020
RJOC 200600Z 26015KT 9999 FEW025 SCT030 BKN040 11/03 Q1019
RJOC 200500Z 25017KT 9999 FEW020 SCT025 BKN040 11/04 Q1018
RJOC 200400Z 25011KT 9999 FEW020 SCT025 BKN040 10/05 Q1019
RJOC 200300Z 28010KT 9999 FEW020 SCT025 BKN035 10/05 Q1019
RJOC 200200Z 28011KT 9999 FEW015 SCT020 BKN030 10/06 Q1019
RJOC 200100Z 27009KT 9999 FEW008 SCT020 BKN030 10/07 Q1019
RJOC 200000Z 29003KT 9999 FEW005 SCT015 BKN020 10/08 Q1018
RJOC 192300Z 27003KT 9999 FEW005 SCT015 BKN020 10/08 Q1018
RJOC 192200Z 22005KT 9999 -SHRA FEW005 SCT015 BKN025 10/08 Q1017
RJOC 192130Z 24004KT 9999 -SHRA FEW005 SCT015 BKN025 10/08 Q1017
RJOC 192110Z 22006KT 9999 -SHRA FEW005 SCT010 BKN020 10/08 Q1017 RMK 1ST005 3CU010 6CU020 A3005
RJOC 191100Z 25013KT 9999 FEW005 SCT008 BKN015 13/11 Q1013
RJOC 191000Z 23010KT 8000 -SHRA FEW003 SCT006 BKN015 12/11 Q1012
RJOC 190900Z 22007KT 8000 -SHRA FEW005 SCT020 BKN025 12/11 Q1011
RJOC 190836Z 24012KT 5000 -SHRA BR FEW005 SCT020 BKN030 13/11 Q1011 RMK 1ST005 3CU020 5CU030 A2986
RJOC 190800Z 24007KT 210V280 3500 -SHRA BR FEW005 SCT008 BKN030 13/11 Q1010
RJOC 190731Z 28010KT 4500 -SHRA BR FEW006 SCT020 BKN030 12/10 Q1009 RMK 1ST006 3CU020 5CU030 A2982
RJOC 190700Z VRB02KT 9999 -SHRA FEW006 SCT030 BKN045 10/09 Q1009
RJOC 190600Z 02004KT 350V050 9999 FEW004 BKN050 10/08 Q1008
RJOC 190500Z 14005KT 5000 -RA BR FEW004 SCT030 BKN050 09/08 Q1010
RJOC 190400Z VRB02KT 6000 -RA BR FEW004 BKN025 BKN030 09/08 Q1012
RJOC 190330Z 01010KT 5000 -RA BR FEW004 BKN035 BKN040 08/07 Q1012 RMK 1ST004 5SC035 6SC040 A2990
RJOC 190300Z 06013KT 4000 RA BR FEW004 BKN035 BKN040 09/07 Q1012
RJOC 190234Z 06010KT 4000 -RA BR FEW004 SCT030 BKN040 08/07 Q1013 RMK 1ST004 3SC030 5SC040 A2994
RJOC 190200Z 08004KT 3500 RA BR FEW004 SCT025 BKN035 08/07 Q1014
RJOC 190130Z 05006KT 4000 RA BR FEW004 SCT030 BKN045 08/07 Q1016 RMK 1ST004 3SC030 6SC045 A3000
RJOC 190100Z 06009KT 4500 -RA BR FEW004 SCT025 BKN045 08/06 Q1016
RJOC 190032Z 05010KT 4500 -RA BR FEW004 SCT020 BKN045 07/06 Q1016 RMK 1ST004 3SC020 6SC045 A3003 P/FR
RJOC 190016Z 05010KT 4000 RA BR FEW004 SCT015 BKN045 07/06 Q1017 RMK 1ST004 3SC015 6SC045 A3004
RJOC 190000Z 05010KT 4500 -RA BR FEW003 SCT015 BKN050 07/05 Q1018
RJOC 182300Z 06013KT 4500 -RA BR FEW003 BKN025 BKN045 06/05 Q1018
RJOC 182200Z 07008KT 4500 -RA BR FEW003 BKN025 BKN045 07/05 Q1019
RJOC 182146Z 06007KT 4800 -RA BR FEW003 BKN025 BKN040 06/05 Q1019 RMK 1ST003 5SC025 7SC040 A3011
RJOC 182130Z 06007KT 6000 -RA BR FEW020 BKN030 BKN040 06/05 Q1019
RJOC 182110Z 07007KT 7000 -RA FEW020 BKN030 BKN040 07/05 Q1020 RMK 1CU020 5SC030 7SC040 A3012
RJOC 181100Z 04003KT CAVOK 08/02 Q1024
RJOC 181000Z 10004KT CAVOK 08/01 Q1025
RJOC 180900Z 07007KT CAVOK 09/03 Q1024
RJOC 180800Z 04005KT CAVOK 10/M01 Q1024
RJOC 180700Z 07006KT CAVOK 11/M02 Q1023
RJOC 180600Z 08005KT CAVOK 10/M00 Q1023